Winston Salem, North Carolina
Current Conditions -  °F | °C
As of 7:54 AM on Thursday 27 Nov 2014 (Local Time) from KINT Reporting Station
Light Rain Light Rain  
Wind Chill: 35°   Ceiling: 400
Heat Index: 40°   Visibility: 10mi
Dew Point: 37°   Wind: 7mph
Humidity: 89%   Direction: 360°N
Pressure: 30.01"   Gusts: NA
Location:  36.1112°N, 80.1999°W
Report Text: KINT 271254Z 36006KT 10SM -RA BKN004 OVC037 04/03 A3001 RMK AO2 SLP165 P0000 T00440028
Loading
Personal Weather Stations






























Interactive Weather Map New forecast layout! Learn more

10-Day Weather Forecast

Advertisements
Track Severe Weather on mobile